sensor_id;sensor_type;location;lat;lon;timestamp;P1;durP1;ratioP1;P2;durP2;ratioP2
14139;SDS011;7150;53.514;9.988;2022-12-18T00:01:23;18.23;;;8.70;;
14139;SDS011;7150;53.514;9.988;2022-12-18T00:03:51;14.10;;;8.55;;
14139;SDS011;7150;53.514;9.988;2022-12-18T00:06:18;19.60;;;8.23;;
14139;SDS011;7150;53.514;9.988;2022-12-18T00:08:44;19.30;;;9.02;;
14139;SDS011;7150;53.514;9.988;2022-12-18T00:11:11;17.92;;;9.43;;
14139;SDS011;7150;53.514;9.988;2022-12-18T00:13:38;22.30;;;8.80;;
14139;SDS011;7150;53.514;9.988;2022-12-18T00:16:05;16.40;;;8.43;;
14139;SDS011;7150;53.514;9.988;2022-12-18T00:18:32;13.48;;;8.55;;
14139;SDS011;7150;53.514;9.988;2022-12-18T00:20:59;15.83;;;8.30;;
14139;SDS011;7150;53.514;9.988;2022-12-18T00:23:26;16.60;;;8.93;;
14139;SDS011;7150;53.514;9.988;2022-12-18T00:25:52;18.10;;;9.25;;
14139;SDS011;7150;53.514;9.988;2022-12-18T00:28:18;16.47;;;8.43;;
14139;SDS011;7150;53.514;9.988;2022-12-18T00:30:43;14.73;;;8.40;;
14139;SDS011;7150;53.514;9.988;2022-12-18T00:33:09;15.20;;;8.07;;
14139;SDS011;7150;53.514;9.988;2022-12-18T00:35:34;16.30;;;8.70;;
14139;SDS011;7150;53.514;9.988;2022-12-18T00:37:59;16.90;;;8.67;;
14139;SDS011;7150;53.514;9.988;2022-12-18T00:40:25;14.93;;;8.30;;
14139;SDS011;7150;53.514;9.988;2022-12-18T00:42:50;14.17;;;8.23;;
14139;SDS011;7150;53.514;9.988;2022-12-18T00:45:25;15.52;;;8.15;;
14139;SDS011;7150;53.514;9.988;2022-12-18T00:47:53;12.95;;;7.50;;
14139;SDS011;7150;53.514;9.988;2022-12-18T00:50:19;13.20;;;7.85;;
14139;SDS011;7150;53.514;9.988;2022-12-18T00:52:44;17.37;;;8.87;;
14139;SDS011;7150;53.514;9.988;2022-12-18T00:55:10;14.37;;;7.93;;
14139;SDS011;7150;53.514;9.988;2022-12-18T00:57:36;17.67;;;8.50;;
14139;SDS011;7150;53.514;9.988;2022-12-18T01:00:03;14.77;;;7.70;;
14139;SDS011;7150;53.514;9.988;2022-12-18T01:02:30;18.85;;;8.75;;
14139;SDS011;7150;53.514;9.988;2022-12-18T01:04:55;13.07;;;8.10;;
14139;SDS011;7150;53.514;9.988;2022-12-18T01:07:21;18.00;;;8.87;;
14139;SDS011;7150;53.514;9.988;2022-12-18T01:09:46;15.10;;;7.90;;
14139;SDS011;7150;53.514;9.988;2022-12-18T01:12:12;14.53;;;8.40;;
14139;SDS011;7150;53.514;9.988;2022-12-18T01:14:37;13.73;;;7.53;;
14139;SDS011;7150;53.514;9.988;2022-12-18T01:17:03;16.93;;;7.83;;
14139;SDS011;7150;53.514;9.988;2022-12-18T01:19:28;18.47;;;7.90;;
14139;SDS011;7150;53.514;9.988;2022-12-18T01:21:54;15.30;;;8.00;;
14139;SDS011;7150;53.514;9.988;2022-12-18T01:24:19;15.00;;;8.07;;
14139;SDS011;7150;53.514;9.988;2022-12-18T01:26:45;16.23;;;8.70;;
14139;SDS011;7150;53.514;9.988;2022-12-18T01:29:10;16.30;;;8.60;;
14139;SDS011;7150;53.514;9.988;2022-12-18T01:31:36;12.83;;;7.47;;
14139;SDS011;7150;53.514;9.988;2022-12-18T01:34:02;12.97;;;7.53;;
14139;SDS011;7150;53.514;9.988;2022-12-18T01:36:30;13.45;;;7.78;;
14139;SDS011;7150;53.514;9.988;2022-12-18T01:38:58;18.05;;;8.73;;
14139;SDS011;7150;53.514;9.988;2022-12-18T01:41:26;15.88;;;8.30;;
14139;SDS011;7150;53.514;9.988;2022-12-18T01:47:20;19.52;;;8.13;;
14139;SDS011;7150;53.514;9.988;2022-12-18T01:49:47;16.92;;;8.43;;
14139;SDS011;7150;53.514;9.988;2022-12-18T01:52:13;18.07;;;7.47;;
14139;SDS011;7150;53.514;9.988;2022-12-18T01:54:39;12.70;;;7.22;;
14139;SDS011;7150;53.514;9.988;2022-12-18T01:57:04;16.17;;;8.80;;
14139;SDS011;7150;53.514;9.988;2022-12-18T01:59:30;14.27;;;7.50;;
14139;SDS011;7150;53.514;9.988;2022-12-18T02:01:57;14.50;;;7.60;;
14139;SDS011;7150;53.514;9.988;2022-12-18T02:04:24;15.35;;;7.97;;
14139;SDS011;7150;53.514;9.988;2022-12-18T02:06:52;13.50;;;7.88;;
14139;SDS011;7150;53.514;9.988;2022-12-18T02:09:28;16.33;;;8.13;;
14139;SDS011;7150;53.514;9.988;2022-12-18T02:12:10;13.05;;;8.02;;
14139;SDS011;7150;53.514;9.988;2022-12-18T02:14:51;14.70;;;7.43;;
14139;SDS011;7150;53.514;9.988;2022-12-18T02:17:47;17.30;;;8.68;;
14139;SDS011;7150;53.514;9.988;2022-12-18T02:20:54;15.98;;;7.53;;
14139;SDS011;7150;53.514;9.988;2022-12-18T02:29:13;12.57;;;6.90;;
14139;SDS011;7150;53.514;9.988;2022-12-18T02:31:35;15.82;;;7.47;;
14139;SDS011;7150;53.514;9.988;2022-12-18T02:34:04;20.00;;;6.95;;
14139;SDS011;7150;53.514;9.988;2022-12-18T02:36:33;16.33;;;7.07;;
14139;SDS011;7150;53.514;9.988;2022-12-18T02:39:01;11.77;;;7.28;;
14139;SDS011;7150;53.514;9.988;2022-12-18T02:41:27;13.55;;;6.80;;
14139;SDS011;7150;53.514;9.988;2022-12-18T02:43:56;12.50;;;6.57;;
14139;SDS011;7150;53.514;9.988;2022-12-18T02:46:36;14.40;;;7.38;;
14139;SDS011;7150;53.514;9.988;2022-12-18T02:52:02;12.65;;;6.85;;
14139;SDS011;7150;53.514;9.988;2022-12-18T03:00:45;12.30;;;7.10;;
14139;SDS011;7150;53.514;9.988;2022-12-18T03:05:56;13.88;;;6.53;;
14139;SDS011;7150;53.514;9.988;2022-12-18T03:08:39;10.88;;;6.22;;
14139;SDS011;7150;53.514;9.988;2022-12-18T03:11:09;13.55;;;6.72;;
14139;SDS011;7150;53.514;9.988;2022-12-18T03:13:45;12.20;;;6.85;;
14139;SDS011;7150;53.514;9.988;2022-12-18T03:16:18;13.40;;;6.97;;
14139;SDS011;7150;53.514;9.988;2022-12-18T03:18:51;12.88;;;6.85;;
14139;SDS011;7150;53.514;9.988;2022-12-18T03:21:23;15.20;;;7.57;;
14139;SDS011;7150;53.514;9.988;2022-12-18T03:23:56;14.43;;;7.18;;
14139;SDS011;7150;53.514;9.988;2022-12-18T03:26:23;12.53;;;7.30;;
14139;SDS011;7150;53.514;9.988;2022-12-18T03:28:54;14.13;;;7.45;;
14139;SDS011;7150;53.514;9.988;2022-12-18T03:31:25;15.70;;;7.35;;
14139;SDS011;7150;53.514;9.988;2022-12-18T03:33:53;14.80;;;7.15;;
14139;SDS011;7150;53.514;9.988;2022-12-18T03:36:20;13.98;;;7.05;;
14139;SDS011;7150;53.514;9.988;2022-12-18T03:38:47;11.77;;;6.40;;
14139;SDS011;7150;53.514;9.988;2022-12-18T03:41:30;13.30;;;6.20;;
14139;SDS011;7150;53.514;9.988;2022-12-18T03:44:15;11.10;;;6.70;;
14139;SDS011;7150;53.514;9.988;2022-12-18T03:46:58;14.20;;;6.75;;
14139;SDS011;7150;53.514;9.988;2022-12-18T03:52:25;16.02;;;7.07;;
14139;SDS011;7150;53.514;9.988;2022-12-18T03:54:55;15.18;;;7.53;;
14139;SDS011;7150;53.514;9.988;2022-12-18T03:57:24;14.63;;;7.55;;
14139;SDS011;7150;53.514;9.988;2022-12-18T03:59:54;12.40;;;6.13;;
14139;SDS011;7150;53.514;9.988;2022-12-18T04:02:22;13.38;;;7.57;;
14139;SDS011;7150;53.514;9.988;2022-12-18T04:04:50;14.77;;;7.10;;
14139;SDS011;7150;53.514;9.988;2022-12-18T04:07:18;12.52;;;6.95;;
14139;SDS011;7150;53.514;9.988;2022-12-18T04:09:45;10.68;;;6.82;;
14139;SDS011;7150;53.514;9.988;2022-12-18T04:12:13;12.98;;;6.72;;
14139;SDS011;7150;53.514;9.988;2022-12-18T04:14:39;12.47;;;6.80;;
14139;SDS011;7150;53.514;9.988;2022-12-18T04:17:05;10.07;;;6.63;;
14139;SDS011;7150;53.514;9.988;2022-12-18T04:19:30;10.73;;;7.03;;
14139;SDS011;7150;53.514;9.988;2022-12-18T04:21:55;12.40;;;6.13;;
14139;SDS011;7150;53.514;9.988;2022-12-18T04:24:21;15.07;;;6.70;;
14139;SDS011;7150;53.514;9.988;2022-12-18T04:26:46;12.67;;;6.23;;
14139;SDS011;7150;53.514;9.988;2022-12-18T04:29:12;16.03;;;6.97;;
14139;SDS011;7150;53.514;9.988;2022-12-18T04:31:37;12.97;;;6.90;;
14139;SDS011;7150;53.514;9.988;2022-12-18T04:34:03;15.33;;;7.37;;
14139;SDS011;7150;53.514;9.988;2022-12-18T04:36:29;12.03;;;6.37;;
14139;SDS011;7150;53.514;9.988;2022-12-18T04:38:54;14.90;;;6.60;;
14139;SDS011;7150;53.514;9.988;2022-12-18T04:41:20;14.27;;;6.50;;
14139;SDS011;7150;53.514;9.988;2022-12-18T04:43:45;13.30;;;6.60;;
14139;SDS011;7150;53.514;9.988;2022-12-18T04:46:11;11.33;;;5.87;;
14139;SDS011;7150;53.514;9.988;2022-12-18T04:48:37;11.90;;;7.13;;
14139;SDS011;7150;53.514;9.988;2022-12-18T04:51:03;10.47;;;6.77;;
14139;SDS011;7150;53.514;9.988;2022-12-18T04:53:29;17.27;;;7.25;;
14139;SDS011;7150;53.514;9.988;2022-12-18T04:56:08;10.00;;;6.23;;
14139;SDS011;7150;53.514;9.988;2022-12-18T04:58:36;9.98;;;6.07;;
14139;SDS011;7150;53.514;9.988;2022-12-18T05:01:02;13.00;;;6.47;;
14139;SDS011;7150;53.514;9.988;2022-12-18T05:03:28;14.90;;;6.93;;
14139;SDS011;7150;53.514;9.988;2022-12-18T05:05:54;12.60;;;6.72;;
14139;SDS011;7150;53.514;9.988;2022-12-18T05:08:19;16.07;;;6.40;;
14139;SDS011;7150;53.514;9.988;2022-12-18T05:10:45;13.37;;;6.30;;
14139;SDS011;7150;53.514;9.988;2022-12-18T05:13:11;13.17;;;6.80;;
14139;SDS011;7150;53.514;9.988;2022-12-18T05:15:36;13.37;;;6.63;;
14139;SDS011;7150;53.514;9.988;2022-12-18T05:18:02;10.53;;;6.00;;
14139;SDS011;7150;53.514;9.988;2022-12-18T05:20:28;13.80;;;6.15;;
14139;SDS011;7150;53.514;9.988;2022-12-18T05:22:54;11.02;;;6.00;;
14139;SDS011;7150;53.514;9.988;2022-12-18T05:25:20;15.67;;;6.93;;
14139;SDS011;7150;53.514;9.988;2022-12-18T05:27:46;12.90;;;6.00;;
14139;SDS011;7150;53.514;9.988;2022-12-18T05:30:13;11.73;;;6.43;;
14139;SDS011;7150;53.514;9.988;2022-12-18T05:32:39;13.25;;;6.68;;
14139;SDS011;7150;53.514;9.988;2022-12-18T05:35:09;13.50;;;6.82;;
14139;SDS011;7150;53.514;9.988;2022-12-18T05:37:35;15.32;;;6.95;;
14139;SDS011;7150;53.514;9.988;2022-12-18T05:40:02;9.73;;;6.23;;
14139;SDS011;7150;53.514;9.988;2022-12-18T05:42:28;10.77;;;6.45;;
14139;SDS011;7150;53.514;9.988;2022-12-18T05:44:53;14.67;;;6.73;;
14139;SDS011;7150;53.514;9.988;2022-12-18T05:47:19;13.27;;;6.20;;
14139;SDS011;7150;53.514;9.988;2022-12-18T05:49:44;15.50;;;6.60;;
14139;SDS011;7150;53.514;9.988;2022-12-18T05:52:10;15.03;;;6.63;;
14139;SDS011;7150;53.514;9.988;2022-12-18T05:54:35;12.07;;;6.93;;
14139;SDS011;7150;53.514;9.988;2022-12-18T05:57:01;14.57;;;7.37;;
14139;SDS011;7150;53.514;9.988;2022-12-18T05:59:26;11.93;;;7.20;;
14139;SDS011;7150;53.514;9.988;2022-12-18T06:01:52;15.30;;;6.87;;
14139;SDS011;7150;53.514;9.988;2022-12-18T06:04:17;11.90;;;6.33;;
14139;SDS011;7150;53.514;9.988;2022-12-18T06:06:43;10.83;;;6.20;;
14139;SDS011;7150;53.514;9.988;2022-12-18T06:09:08;10.87;;;5.63;;
14139;SDS011;7150;53.514;9.988;2022-12-18T06:11:35;13.40;;;6.87;;
14139;SDS011;7150;53.514;9.988;2022-12-18T06:14:02;12.35;;;5.68;;
14139;SDS011;7150;53.514;9.988;2022-12-18T06:16:29;11.32;;;6.47;;
14139;SDS011;7150;53.514;9.988;2022-12-18T06:18:56;10.90;;;6.22;;
14139;SDS011;7150;53.514;9.988;2022-12-18T06:21:25;11.82;;;7.00;;
14139;SDS011;7150;53.514;9.988;2022-12-18T06:23:52;11.00;;;6.50;;
14139;SDS011;7150;53.514;9.988;2022-12-18T06:26:17;13.43;;;6.67;;
14139;SDS011;7150;53.514;9.988;2022-12-18T06:28:43;11.33;;;6.67;;
14139;SDS011;7150;53.514;9.988;2022-12-18T06:31:09;13.10;;;6.53;;
14139;SDS011;7150;53.514;9.988;2022-12-18T06:33:35;11.57;;;6.22;;
14139;SDS011;7150;53.514;9.988;2022-12-18T06:36:05;12.85;;;5.97;;
14139;SDS011;7150;53.514;9.988;2022-12-18T06:38:34;13.18;;;6.47;;
14139;SDS011;7150;53.514;9.988;2022-12-18T06:41:02;10.68;;;6.63;;
14139;SDS011;7150;53.514;9.988;2022-12-18T06:43:32;10.23;;;6.25;;
14139;SDS011;7150;53.514;9.988;2022-12-18T06:45:58;11.83;;;6.40;;
14139;SDS011;7150;53.514;9.988;2022-12-18T06:48:25;13.77;;;6.88;;
14139;SDS011;7150;53.514;9.988;2022-12-18T06:50:50;10.93;;;6.70;;
14139;SDS011;7150;53.514;9.988;2022-12-18T06:53:16;13.83;;;7.00;;
14139;SDS011;7150;53.514;9.988;2022-12-18T06:55:41;14.30;;;7.03;;
14139;SDS011;7150;53.514;9.988;2022-12-18T06:58:06;11.77;;;6.33;;
14139;SDS011;7150;53.514;9.988;2022-12-18T07:00:32;12.63;;;6.23;;
14139;SDS011;7150;53.514;9.988;2022-12-18T07:02:57;11.27;;;6.63;;
14139;SDS011;7150;53.514;9.988;2022-12-18T07:05:23;12.17;;;6.30;;
14139;SDS011;7150;53.514;9.988;2022-12-18T07:07:48;11.90;;;6.33;;
14139;SDS011;7150;53.514;9.988;2022-12-18T07:10:14;11.53;;;6.60;;
14139;SDS011;7150;53.514;9.988;2022-12-18T07:12:39;14.23;;;7.23;;
14139;SDS011;7150;53.514;9.988;2022-12-18T07:15:06;13.77;;;6.85;;
14139;SDS011;7150;53.514;9.988;2022-12-18T07:17:32;12.57;;;6.78;;
14139;SDS011;7150;53.514;9.988;2022-12-18T07:19:57;11.40;;;6.40;;
14139;SDS011;7150;53.514;9.988;2022-12-18T07:22:24;13.03;;;6.57;;
14139;SDS011;7150;53.514;9.988;2022-12-18T07:24:50;11.13;;;5.75;;
14139;SDS011;7150;53.514;9.988;2022-12-18T07:27:16;10.33;;;6.37;;
14139;SDS011;7150;53.514;9.988;2022-12-18T07:29:41;10.47;;;6.20;;
14139;SDS011;7150;53.514;9.988;2022-12-18T07:32:07;12.30;;;6.53;;
14139;SDS011;7150;53.514;9.988;2022-12-18T07:34:33;12.43;;;6.27;;
14139;SDS011;7150;53.514;9.988;2022-12-18T07:36:58;11.00;;;5.93;;
14139;SDS011;7150;53.514;9.988;2022-12-18T07:39:24;14.33;;;6.77;;
14139;SDS011;7150;53.514;9.988;2022-12-18T07:41:49;11.80;;;6.23;;
14139;SDS011;7150;53.514;9.988;2022-12-18T07:44:33;12.65;;;6.32;;
14139;SDS011;7150;53.514;9.988;2022-12-18T07:46:59;12.90;;;5.87;;
14139;SDS011;7150;53.514;9.988;2022-12-18T07:49:25;14.47;;;6.97;;
14139;SDS011;7150;53.514;9.988;2022-12-18T07:51:50;12.77;;;6.47;;
14139;SDS011;7150;53.514;9.988;2022-12-18T07:54:15;12.53;;;6.13;;
14139;SDS011;7150;53.514;9.988;2022-12-18T07:56:41;13.80;;;7.67;;
14139;SDS011;7150;53.514;9.988;2022-12-18T07:59:06;13.70;;;6.63;;
14139;SDS011;7150;53.514;9.988;2022-12-18T08:01:32;13.97;;;6.53;;
14139;SDS011;7150;53.514;9.988;2022-12-18T08:03:59;10.55;;;5.93;;
14139;SDS011;7150;53.514;9.988;2022-12-18T08:06:24;15.43;;;7.03;;
14139;SDS011;7150;53.514;9.988;2022-12-18T08:08:51;11.57;;;5.97;;
14139;SDS011;7150;53.514;9.988;2022-12-18T08:11:17;10.90;;;6.78;;
14139;SDS011;7150;53.514;9.988;2022-12-18T08:13:43;10.00;;;6.80;;
14139;SDS011;7150;53.514;9.988;2022-12-18T08:16:08;11.47;;;6.10;;
14139;SDS011;7150;53.514;9.988;2022-12-18T08:18:37;10.57;;;6.07;;
14139;SDS011;7150;53.514;9.988;2022-12-18T08:21:09;10.68;;;6.43;;
14139;SDS011;7150;53.514;9.988;2022-12-18T08:23:36;10.75;;;6.30;;
14139;SDS011;7150;53.514;9.988;2022-12-18T08:26:01;12.97;;;6.33;;
14139;SDS011;7150;53.514;9.988;2022-12-18T08:28:27;13.67;;;6.70;;
14139;SDS011;7150;53.514;9.988;2022-12-18T08:30:52;13.07;;;6.37;;
14139;SDS011;7150;53.514;9.988;2022-12-18T08:33:18;17.03;;;7.77;;
14139;SDS011;7150;53.514;9.988;2022-12-18T08:35:43;14.97;;;6.60;;
14139;SDS011;7150;53.514;9.988;2022-12-18T08:38:09;12.70;;;6.60;;
14139;SDS011;7150;53.514;9.988;2022-12-18T08:40:34;14.47;;;7.50;;
14139;SDS011;7150;53.514;9.988;2022-12-18T08:43:00;15.00;;;7.87;;
14139;SDS011;7150;53.514;9.988;2022-12-18T08:45:44;15.73;;;8.50;;
14139;SDS011;7150;53.514;9.988;2022-12-18T08:48:09;13.03;;;7.60;;
14139;SDS011;7150;53.514;9.988;2022-12-18T08:50:35;13.40;;;7.00;;
14139;SDS011;7150;53.514;9.988;2022-12-18T08:53:00;13.93;;;7.33;;
14139;SDS011;7150;53.514;9.988;2022-12-18T08:55:27;15.30;;;7.67;;
14139;SDS011;7150;53.514;9.988;2022-12-18T08:57:53;12.23;;;6.63;;
14139;SDS011;7150;53.514;9.988;2022-12-18T09:00:18;12.27;;;6.73;;
14139;SDS011;7150;53.514;9.988;2022-12-18T09:02:44;11.48;;;6.97;;
14139;SDS011;7150;53.514;9.988;2022-12-18T09:05:10;15.17;;;7.00;;
14139;SDS011;7150;53.514;9.988;2022-12-18T09:07:35;11.43;;;6.20;;
14139;SDS011;7150;53.514;9.988;2022-12-18T09:10:01;16.07;;;8.47;;
14139;SDS011;7150;53.514;9.988;2022-12-18T09:12:27;12.87;;;7.43;;
14139;SDS011;7150;53.514;9.988;2022-12-18T09:14:52;13.97;;;7.47;;
14139;SDS011;7150;53.514;9.988;2022-12-18T09:17:18;12.20;;;7.03;;
14139;SDS011;7150;53.514;9.988;2022-12-18T09:19:43;13.50;;;6.87;;
14139;SDS011;7150;53.514;9.988;2022-12-18T09:22:09;13.63;;;7.37;;
14139;SDS011;7150;53.514;9.988;2022-12-18T09:24:34;12.70;;;6.93;;
14139;SDS011;7150;53.514;9.988;2022-12-18T09:27:00;15.90;;;7.60;;
14139;SDS011;7150;53.514;9.988;2022-12-18T09:29:26;15.97;;;8.30;;
14139;SDS011;7150;53.514;9.988;2022-12-18T09:31:51;14.77;;;8.53;;
14139;SDS011;7150;53.514;9.988;2022-12-18T09:34:17;13.33;;;7.27;;
14139;SDS011;7150;53.514;9.988;2022-12-18T09:36:42;11.47;;;7.20;;
14139;SDS011;7150;53.514;9.988;2022-12-18T09:39:08;11.80;;;7.20;;
14139;SDS011;7150;53.514;9.988;2022-12-18T09:44:20;12.80;;;7.20;;
14139;SDS011;7150;53.514;9.988;2022-12-18T09:49:45;16.73;;;7.10;;
14139;SDS011;7150;53.514;9.988;2022-12-18T09:52:16;19.27;;;8.40;;
14139;SDS011;7150;53.514;9.988;2022-12-18T09:54:52;13.32;;;7.15;;
14139;SDS011;7150;53.514;9.988;2022-12-18T09:57:22;15.73;;;8.30;;
14139;SDS011;7150;53.514;9.988;2022-12-18T09:59:51;15.93;;;8.18;;
14139;SDS011;7150;53.514;9.988;2022-12-18T10:02:24;14.93;;;7.38;;
14139;SDS011;7150;53.514;9.988;2022-12-18T10:04:55;12.63;;;7.70;;
14139;SDS011;7150;53.514;9.988;2022-12-18T10:10:32;15.52;;;7.53;;
14139;SDS011;7150;53.514;9.988;2022-12-18T10:13:15;16.23;;;7.72;;
14139;SDS011;7150;53.514;9.988;2022-12-18T10:18:54;15.80;;;6.95;;
14139;SDS011;7150;53.514;9.988;2022-12-18T10:21:50;14.10;;;8.00;;
14139;SDS011;7150;53.514;9.988;2022-12-18T10:24:25;15.35;;;8.57;;
14139;SDS011;7150;53.514;9.988;2022-12-18T10:27:21;16.48;;;8.43;;
14139;SDS011;7150;53.514;9.988;2022-12-18T10:29:50;15.20;;;8.27;;
14139;SDS011;7150;53.514;9.988;2022-12-18T10:32:17;15.77;;;8.70;;
14139;SDS011;7150;53.514;9.988;2022-12-18T10:34:48;13.82;;;7.82;;
14139;SDS011;7150;53.514;9.988;2022-12-18T10:37:19;14.43;;;7.68;;
14139;SDS011;7150;53.514;9.988;2022-12-18T10:40:04;14.82;;;7.97;;
14139;SDS011;7150;53.514;9.988;2022-12-18T10:42:33;16.90;;;8.77;;
14139;SDS011;7150;53.514;9.988;2022-12-18T10:45:09;16.47;;;8.30;;
14139;SDS011;7150;53.514;9.988;2022-12-18T10:47:43;14.13;;;7.53;;
14139;SDS011;7150;53.514;9.988;2022-12-18T10:50:18;12.93;;;7.78;;
14139;SDS011;7150;53.514;9.988;2022-12-18T10:52:54;14.02;;;8.05;;
14139;SDS011;7150;53.514;9.988;2022-12-18T10:55:21;12.75;;;7.40;;
14139;SDS011;7150;53.514;9.988;2022-12-18T10:57:46;13.37;;;7.57;;
14139;SDS011;7150;53.514;9.988;2022-12-18T11:00:22;17.30;;;8.90;;
14139;SDS011;7150;53.514;9.988;2022-12-18T11:02:50;17.48;;;8.57;;
14139;SDS011;7150;53.514;9.988;2022-12-18T11:05:23;13.63;;;7.78;;
14139;SDS011;7150;53.514;9.988;2022-12-18T11:07:49;16.52;;;8.63;;
14139;SDS011;7150;53.514;9.988;2022-12-18T11:10:16;18.00;;;8.02;;
14139;SDS011;7150;53.514;9.988;2022-12-18T11:12:43;17.15;;;8.38;;
14139;SDS011;7150;53.514;9.988;2022-12-18T11:15:20;15.05;;;8.30;;
14139;SDS011;7150;53.514;9.988;2022-12-18T11:17:49;14.95;;;7.93;;
14139;SDS011;7150;53.514;9.988;2022-12-18T11:20:26;16.58;;;8.05;;
14139;SDS011;7150;53.514;9.988;2022-12-18T11:23:00;16.15;;;9.40;;
14139;SDS011;7150;53.514;9.988;2022-12-18T11:25:28;16.70;;;8.20;;
14139;SDS011;7150;53.514;9.988;2022-12-18T11:28:02;11.57;;;7.70;;
14139;SDS011;7150;53.514;9.988;2022-12-18T11:30:35;15.52;;;7.90;;
14139;SDS011;7150;53.514;9.988;2022-12-18T11:33:03;15.02;;;8.23;;
14139;SDS011;7150;53.514;9.988;2022-12-18T11:35:34;16.45;;;8.80;;
14139;SDS011;7150;53.514;9.988;2022-12-18T11:38:38;14.38;;;7.60;;
14139;SDS011;7150;53.514;9.988;2022-12-18T11:43:52;20.92;;;9.43;;
14139;SDS011;7150;53.514;9.988;2022-12-18T11:46:29;14.10;;;8.57;;
14139;SDS011;7150;53.514;9.988;2022-12-18T11:49:00;17.27;;;9.30;;
14139;SDS011;7150;53.514;9.988;2022-12-18T11:51:37;15.00;;;8.52;;
14139;SDS011;7150;53.514;9.988;2022-12-18T11:54:13;16.50;;;8.80;;
14139;SDS011;7150;53.514;9.988;2022-12-18T11:56:45;15.65;;;8.50;;
14139;SDS011;7150;53.514;9.988;2022-12-18T11:59:24;16.33;;;8.82;;
14139;SDS011;7150;53.514;9.988;2022-12-18T12:05:05;18.17;;;8.85;;
14139;SDS011;7150;53.514;9.988;2022-12-18T12:07:47;17.60;;;9.93;;
14139;SDS011;7150;53.514;9.988;2022-12-18T12:10:39;17.77;;;8.85;;
14139;SDS011;7150;53.514;9.988;2022-12-18T12:13:22;17.50;;;8.40;;
14139;SDS011;7150;53.514;9.988;2022-12-18T12:21:28;17.58;;;8.35;;
14139;SDS011;7150;53.514;9.988;2022-12-18T12:24:24;16.33;;;9.02;;
14139;SDS011;7150;53.514;9.988;2022-12-18T12:35:39;18.73;;;9.95;;
14139;SDS011;7150;53.514;9.988;2022-12-18T12:38:13;21.48;;;10.55;;
14139;SDS011;7150;53.514;9.988;2022-12-18T12:40:44;18.70;;;9.15;;
14139;SDS011;7150;53.514;9.988;2022-12-18T12:46:03;17.80;;;9.95;;
14139;SDS011;7150;53.514;9.988;2022-12-18T12:48:35;19.15;;;8.30;;
14139;SDS011;7150;53.514;9.988;2022-12-18T12:51:28;17.75;;;8.88;;
14139;SDS011;7150;53.514;9.988;2022-12-18T12:53:59;18.85;;;8.38;;
14139;SDS011;7150;53.514;9.988;2022-12-18T12:56:29;18.73;;;9.27;;
14139;SDS011;7150;53.514;9.988;2022-12-18T12:59:24;20.48;;;9.10;;
14139;SDS011;7150;53.514;9.988;2022-12-18T13:04:34;17.55;;;9.52;;
14139;SDS011;7150;53.514;9.988;2022-12-18T13:07:10;19.15;;;9.80;;
14139;SDS011;7150;53.514;9.988;2022-12-18T13:12:55;18.77;;;8.38;;
14139;SDS011;7150;53.514;9.988;2022-12-18T13:18:23;22.20;;;10.13;;
14139;SDS011;7150;53.514;9.988;2022-12-18T13:23:27;19.35;;;9.98;;
14139;SDS011;7150;53.514;9.988;2022-12-18T13:30:59;18.80;;;9.73;;
14139;SDS011;7150;53.514;9.988;2022-12-18T13:33:34;20.98;;;9.77;;
14139;SDS011;7150;53.514;9.988;2022-12-18T13:44:34;24.42;;;10.85;;
14139;SDS011;7150;53.514;9.988;2022-12-18T13:47:02;21.98;;;10.95;;
14139;SDS011;7150;53.514;9.988;2022-12-18T13:55:06;25.50;;;11.35;;
14139;SDS011;7150;53.514;9.988;2022-12-18T13:57:39;21.30;;;10.10;;
14139;SDS011;7150;53.514;9.988;2022-12-18T14:00:19;22.45;;;10.93;;
14139;SDS011;7150;53.514;9.988;2022-12-18T14:02:50;21.00;;;9.52;;
14139;SDS011;7150;53.514;9.988;2022-12-18T14:05:23;20.30;;;9.63;;
14139;SDS011;7150;53.514;9.988;2022-12-18T14:07:48;22.10;;;9.88;;
14139;SDS011;7150;53.514;9.988;2022-12-18T14:10:15;25.43;;;10.90;;
14139;SDS011;7150;53.514;9.988;2022-12-18T14:12:44;22.85;;;10.85;;
14139;SDS011;7150;53.514;9.988;2022-12-18T14:17:52;23.38;;;10.52;;
14139;SDS011;7150;53.514;9.988;2022-12-18T14:20:28;24.85;;;11.63;;
14139;SDS011;7150;53.514;9.988;2022-12-18T14:22:56;25.05;;;10.98;;
14139;SDS011;7150;53.514;9.988;2022-12-18T14:25:25;23.17;;;11.48;;
14139;SDS011;7150;53.514;9.988;2022-12-18T14:28:04;26.33;;;11.35;;
14139;SDS011;7150;53.514;9.988;2022-12-18T14:30:37;23.55;;;10.15;;
14139;SDS011;7150;53.514;9.988;2022-12-18T14:33:10;29.85;;;12.23;;
14139;SDS011;7150;53.514;9.988;2022-12-18T14:35:42;20.75;;;11.20;;
14139;SDS011;7150;53.514;9.988;2022-12-18T14:38:23;27.10;;;11.68;;
14139;SDS011;7150;53.514;9.988;2022-12-18T14:40:57;26.42;;;12.00;;
14139;SDS011;7150;53.514;9.988;2022-12-18T14:43:29;26.45;;;11.73;;
14139;SDS011;7150;53.514;9.988;2022-12-18T14:45:57;21.88;;;10.13;;
14139;SDS011;7150;53.514;9.988;2022-12-18T14:51:03;22.40;;;11.15;;
14139;SDS011;7150;53.514;9.988;2022-12-18T14:53:33;23.67;;;10.45;;
14139;SDS011;7150;53.514;9.988;2022-12-18T14:56:01;24.42;;;11.50;;
14139;SDS011;7150;53.514;9.988;2022-12-18T14:58:28;24.20;;;11.50;;
14139;SDS011;7150;53.514;9.988;2022-12-18T15:00:53;25.63;;;11.90;;
14139;SDS011;7150;53.514;9.988;2022-12-18T15:03:20;28.30;;;13.17;;
14139;SDS011;7150;53.514;9.988;2022-12-18T15:05:46;26.00;;;12.50;;
14139;SDS011;7150;53.514;9.988;2022-12-18T15:08:29;29.30;;;12.45;;
14139;SDS011;7150;53.514;9.988;2022-12-18T15:10:59;28.52;;;11.75;;
14139;SDS011;7150;53.514;9.988;2022-12-18T15:13:24;28.83;;;13.03;;
14139;SDS011;7150;53.514;9.988;2022-12-18T15:15:50;26.85;;;11.88;;
14139;SDS011;7150;53.514;9.988;2022-12-18T15:18:18;29.83;;;13.18;;
14139;SDS011;7150;53.514;9.988;2022-12-18T15:20:53;29.58;;;12.10;;
14139;SDS011;7150;53.514;9.988;2022-12-18T15:23:22;26.80;;;13.02;;
14139;SDS011;7150;53.514;9.988;2022-12-18T15:25:57;26.95;;;12.27;;
14139;SDS011;7150;53.514;9.988;2022-12-18T15:28:33;27.63;;;12.55;;
14139;SDS011;7150;53.514;9.988;2022-12-18T15:33:33;24.45;;;11.57;;
14139;SDS011;7150;53.514;9.988;2022-12-18T15:36:04;25.88;;;11.70;;
14139;SDS011;7150;53.514;9.988;2022-12-18T15:38:40;24.63;;;11.63;;
14139;SDS011;7150;53.514;9.988;2022-12-18T15:41:14;25.30;;;11.73;;
14139;SDS011;7150;53.514;9.988;2022-12-18T15:43:40;28.27;;;10.98;;
14139;SDS011;7150;53.514;9.988;2022-12-18T15:46:08;32.33;;;12.83;;
14139;SDS011;7150;53.514;9.988;2022-12-18T15:48:44;28.30;;;11.77;;
14139;SDS011;7150;53.514;9.988;2022-12-18T15:51:11;27.25;;;12.38;;
14139;SDS011;7150;53.514;9.988;2022-12-18T15:53:41;27.42;;;11.45;;
14139;SDS011;7150;53.514;9.988;2022-12-18T15:56:10;29.73;;;12.52;;
14139;SDS011;7150;53.514;9.988;2022-12-18T15:58:55;31.38;;;12.65;;
14139;SDS011;7150;53.514;9.988;2022-12-18T16:01:21;30.70;;;13.37;;
14139;SDS011;7150;53.514;9.988;2022-12-18T16:03:48;28.70;;;12.32;;
14139;SDS011;7150;53.514;9.988;2022-12-18T16:06:14;28.17;;;11.90;;
14139;SDS011;7150;53.514;9.988;2022-12-18T16:08:39;32.90;;;12.03;;
14139;SDS011;7150;53.514;9.988;2022-12-18T16:11:05;28.33;;;11.67;;
14139;SDS011;7150;53.514;9.988;2022-12-18T16:13:30;27.47;;;11.40;;
14139;SDS011;7150;53.514;9.988;2022-12-18T16:15:56;29.13;;;12.70;;
14139;SDS011;7150;53.514;9.988;2022-12-18T16:18:22;23.33;;;10.50;;
14139;SDS011;7150;53.514;9.988;2022-12-18T16:20:47;26.73;;;11.83;;
14139;SDS011;7150;53.514;9.988;2022-12-18T16:23:13;31.93;;;12.47;;
14139;SDS011;7150;53.514;9.988;2022-12-18T16:25:38;22.10;;;10.00;;
14139;SDS011;7150;53.514;9.988;2022-12-18T16:28:04;27.53;;;12.27;;
14139;SDS011;7150;53.514;9.988;2022-12-18T16:30:30;30.63;;;13.33;;
14139;SDS011;7150;53.514;9.988;2022-12-18T16:32:56;32.60;;;12.00;;
14139;SDS011;7150;53.514;9.988;2022-12-18T16:35:22;26.42;;;11.45;;